createdAt,value
2017-09-10T00:01:12.583Z,10.10
2017-09-10T00:03:40.042Z,12.67
2017-09-10T00:06:07.582Z,11.27
2017-09-10T00:08:35.033Z,10.97
2017-09-10T00:11:02.604Z,11.30
2017-09-10T00:13:30.078Z,11.10
2017-09-10T00:15:57.573Z,12.50
2017-09-10T00:18:25.801Z,11.53
2017-09-10T00:20:54.289Z,12.60
2017-09-10T00:23:21.779Z,13.40
2017-09-10T00:25:49.999Z,12.73
2017-09-10T00:28:17.961Z,13.93
2017-09-10T00:30:45.460Z,15.13
2017-09-10T00:33:13.140Z,16.13
2017-09-10T00:35:40.658Z,14.60
2017-09-10T00:38:08.128Z,14.70
2017-09-10T00:40:35.628Z,14.47
2017-09-10T00:43:03.855Z,12.13
2017-09-10T00:45:31.314Z,12.80
2017-09-10T00:47:58.794Z,12.07
2017-09-10T00:50:26.321Z,12.90
2017-09-10T00:52:53.817Z,12.93
2017-09-10T00:55:21.301Z,12.77
2017-09-10T00:57:48.777Z,11.73
2017-09-10T01:00:16.243Z,11.67
2017-09-10T01:02:43.765Z,11.30
2017-09-10T01:05:11.233Z,11.90
2017-09-10T01:07:38.701Z,11.50
2017-09-10T01:10:06.190Z,11.97
2017-09-10T01:12:33.642Z,11.83
2017-09-10T01:15:01.865Z,11.90
2017-09-10T01:17:29.339Z,11.50
2017-09-10T01:19:57.645Z,10.47
2017-09-10T01:22:25.916Z,11.60
2017-09-10T01:24:53.377Z,10.87
2017-09-10T01:27:20.829Z,10.87
2017-09-10T01:29:49.097Z,10.67
2017-09-10T01:32:17.322Z,10.17
2017-09-10T01:34:44.777Z,11.00
2017-09-10T01:37:12.250Z,10.40
2017-09-10T01:39:39.709Z,10.60
2017-09-10T01:42:07.201Z,11.47
2017-09-10T01:44:34.894Z,10.80
2017-09-10T01:47:02.390Z,11.03
2017-09-10T01:49:29.845Z,11.37
2017-09-10T01:51:57.310Z,10.60
2017-09-10T01:54:24.798Z,11.00
2017-09-10T01:56:52.282Z,10.10
2017-09-10T01:59:19.734Z,11.00
2017-09-10T02:01:47.990Z,11.40
2017-09-10T02:04:15.470Z,10.77
2017-09-10T02:06:42.925Z,10.73
2017-09-10T02:09:10.394Z,11.53
2017-09-10T02:11:37.850Z,10.70
2017-09-10T02:14:05.321Z,10.27
2017-09-10T02:16:32.774Z,10.33
2017-09-10T02:19:00.333Z,10.27
2017-09-10T02:21:27.789Z,10.17
2017-09-10T02:23:56.037Z,10.70
2017-09-10T02:26:23.503Z,11.77
2017-09-10T02:28:50.966Z,11.73
2017-09-10T02:31:19.222Z,9.70
2017-09-10T02:33:47.454Z,11.20
2017-09-10T02:36:14.945Z,10.20
2017-09-10T02:38:43.166Z,10.60
2017-09-10T02:41:10.630Z,9.37
2017-09-10T02:43:38.866Z,10.80
2017-09-10T02:46:06.362Z,10.77
2017-09-10T02:48:34.649Z,10.47
2017-09-10T02:51:02.106Z,9.50
2017-09-10T02:53:29.593Z,10.27
2017-09-10T02:55:57.054Z,11.33
2017-09-10T02:58:24.514Z,10.00
2017-09-10T03:00:51.998Z,11.27
2017-09-10T03:03:19.458Z,10.07
2017-09-10T03:05:46.918Z,11.53
2017-09-10T03:08:14.405Z,11.87
2017-09-10T03:10:41.894Z,11.13
2017-09-10T03:13:09.353Z,10.53
2017-09-10T03:15:36.818Z,11.73
2017-09-10T03:18:04.309Z,10.77
2017-09-10T03:20:32.541Z,10.80
2017-09-10T03:22:59.998Z,11.40
2017-09-10T03:25:27.478Z,11.40
2017-09-10T03:27:54.937Z,11.73
2017-09-10T03:30:22.438Z,11.63
2017-09-10T03:32:50.670Z,10.40
2017-09-10T03:35:18.138Z,10.23
2017-09-10T03:37:46.385Z,9.33
2017-09-10T03:40:13.910Z,9.93
2017-09-10T03:42:41.392Z,10.00
2017-09-10T03:45:08.873Z,9.37
2017-09-10T03:47:36.326Z,9.50
2017-09-10T03:50:03.829Z,9.47
2017-09-10T03:52:31.289Z,9.53
2017-09-10T03:54:58.817Z,9.97
2017-09-10T03:57:26.318Z,11.60
2017-09-10T03:59:54.545Z,10.17
2017-09-10T04:02:22.009Z,12.50
2017-09-10T04:04:50.258Z,12.43
2017-09-10T04:07:17.709Z,12.70
2017-09-10T04:09:45.297Z,13.37
2017-09-10T04:12:12.742Z,13.47
2017-09-10T04:14:40.198Z,12.30
2017-09-10T04:17:07.678Z,13.30
2017-09-10T04:19:35.804Z,12.05
2017-09-10T04:22:03.302Z,12.50
2017-09-10T04:24:30.793Z,12.10
2017-09-10T04:26:58.261Z,12.87
2017-09-10T04:29:26.486Z,11.90
2017-09-10T04:31:53.962Z,11.20
2017-09-10T04:34:21.426Z,11.10
2017-09-10T04:36:48.917Z,13.30
2017-09-10T04:39:16.371Z,13.40
2017-09-10T04:41:44.593Z,14.10
2017-09-10T04:44:12.075Z,13.50
2017-09-10T04:46:40.305Z,13.70
2017-09-10T04:49:07.788Z,14.30
2017-09-10T04:51:35.250Z,14.13
2017-09-10T04:54:02.701Z,13.87
2017-09-10T04:56:30.192Z,13.83
2017-09-10T04:58:58.484Z,13.70
2017-09-10T05:01:25.937Z,16.13
2017-09-10T05:03:53.418Z,13.63
2017-09-10T05:06:20.873Z,15.03
2017-09-10T05:08:49.170Z,13.57
2017-09-10T05:11:16.626Z,12.20
2017-09-10T05:13:44.077Z,13.30
2017-09-10T05:16:12.325Z,13.17
2017-09-10T05:18:39.777Z,12.57
2017-09-10T05:21:07.997Z,12.67
2017-09-10T05:23:35.474Z,12.47
2017-09-10T05:26:02.926Z,12.87
2017-09-10T05:28:30.444Z,13.13
2017-09-10T05:30:57.909Z,12.20
2017-09-10T05:33:25.374Z,11.03
2017-09-10T05:35:53.633Z,12.23
2017-09-10T05:38:21.089Z,12.20
2017-09-10T05:40:48.544Z,10.60
2017-09-10T05:43:16.024Z,10.40
2017-09-10T05:45:43.517Z,11.07
2017-09-10T05:48:10.977Z,9.07
2017-09-10T05:50:38.454Z,10.47
2017-09-10T05:53:05.917Z,9.10
2017-09-10T05:55:33.405Z,9.23
2017-09-10T05:58:01.637Z,8.40
2017-09-10T06:00:29.099Z,8.87
2017-09-10T06:02:56.585Z,8.80
2017-09-10T06:05:24.067Z,7.80
2017-09-10T06:07:52.325Z,7.90
2017-09-10T06:10:19.781Z,7.30
2017-09-10T06:12:47.278Z,7.93
2017-09-10T06:15:14.729Z,7.33
2017-09-10T06:17:42.178Z,8.00
2017-09-10T06:20:09.662Z,10.07
2017-09-10T06:22:37.121Z,8.97
2017-09-10T06:25:04.607Z,9.10
2017-09-10T06:27:32.090Z,9.20
2017-09-10T06:29:59.558Z,9.70
2017-09-10T06:32:27.794Z,9.73
2017-09-10T06:34:55.286Z,11.63
2017-09-10T06:37:22.742Z,10.50
2017-09-10T06:39:50.210Z,9.93
2017-09-10T06:42:17.700Z,10.63
2017-09-10T06:44:45.170Z,10.90
2017-09-10T06:47:12.626Z,10.10
2017-09-10T06:49:40.100Z,7.70
2017-09-10T06:52:07.559Z,7.53
2017-09-10T06:54:35.033Z,7.47
2017-09-10T06:57:02.481Z,6.73
2017-09-10T06:59:29.981Z,6.70
2017-09-10T07:01:57.444Z,7.60
2017-09-10T07:04:24.898Z,7.40
2017-09-10T07:06:52.369Z,8.23
2017-09-10T07:09:19.817Z,7.87
2017-09-10T07:11:47.309Z,8.10
2017-09-10T07:14:14.777Z,7.50
2017-09-10T07:16:43.305Z,8.23
2017-09-10T07:19:12.207Z,8.73
2017-09-10T07:21:39.760Z,7.50
2017-09-10T07:24:08.749Z,7.33
2017-09-10T07:26:36.657Z,4.90
2017-09-10T07:29:04.455Z,6.97
2017-09-10T07:31:32.944Z,6.90
2017-09-10T07:34:00.414Z,6.33
2017-09-10T07:36:28.198Z,6.97
2017-09-10T07:38:57.157Z,5.53
2017-09-10T07:41:25.465Z,7.00
2017-09-10T07:43:53.009Z,6.80
2017-09-10T07:46:20.702Z,6.40
2017-09-10T07:48:48.280Z,6.07
2017-09-10T07:51:16.041Z,6.40
2017-09-10T07:53:43.570Z,7.17
2017-09-10T07:56:11.294Z,7.33
2017-09-10T07:58:39.668Z,5.50
2017-09-10T08:01:07.600Z,6.37
2017-09-10T08:03:36.047Z,6.40
2017-09-10T08:06:03.566Z,4.77
2017-09-10T08:08:31.036Z,6.30
2017-09-10T08:10:58.508Z,5.70
2017-09-10T08:13:27.301Z,5.10
2017-09-10T08:15:55.438Z,5.43
2017-09-10T08:18:23.301Z,5.37
2017-09-10T08:20:51.810Z,6.20
2017-09-10T08:23:19.568Z,4.77
2017-09-10T08:25:47.482Z,4.90
2017-09-10T08:28:14.981Z,4.53
2017-09-10T08:30:42.601Z,5.87
2017-09-10T08:33:10.054Z,5.57
2017-09-10T08:35:37.529Z,4.80
2017-09-10T08:38:05.778Z,5.30
2017-09-10T08:40:33.250Z,4.67
2017-09-10T08:43:00.734Z,5.47
2017-09-10T08:45:28.221Z,5.97
2017-09-10T08:47:55.693Z,4.90
2017-09-10T08:50:23.319Z,3.50
2017-09-10T08:52:50.897Z,4.70
2017-09-10T08:55:18.405Z,5.80
2017-09-10T08:57:46.033Z,5.10
2017-09-10T09:00:13.583Z,5.90
2017-09-10T09:02:41.114Z,5.23
2017-09-10T09:05:08.725Z,4.87
2017-09-10T09:07:36.399Z,4.80
2017-09-10T09:10:03.871Z,4.37
2017-09-10T09:12:31.345Z,4.17
2017-09-10T09:14:58.813Z,4.90
2017-09-10T09:17:26.322Z,3.83
2017-09-10T09:19:53.789Z,3.90
2017-09-10T09:22:21.245Z,3.70
2017-09-10T09:24:48.736Z,5.30
2017-09-10T09:27:16.957Z,3.83
2017-09-10T09:29:44.445Z,3.90
2017-09-10T09:32:11.901Z,4.10
2017-09-10T09:34:39.358Z,2.90
2017-09-10T09:37:06.829Z,2.73
2017-09-10T09:39:34.318Z,3.30
2017-09-10T09:42:01.779Z,3.00
2017-09-10T09:44:29.225Z,3.20
2017-09-10T09:46:57.474Z,2.93
2017-09-10T09:49:24.939Z,2.47
2017-09-10T09:51:52.397Z,3.50
2017-09-10T09:54:19.885Z,2.37
2017-09-10T09:56:47.343Z,2.90
2017-09-10T09:59:14.793Z,1.70
2017-09-10T10:01:42.265Z,2.50
2017-09-10T10:04:09.741Z,3.00
2017-09-10T10:06:37.233Z,3.50
2017-09-10T10:09:04.689Z,2.10
2017-09-10T10:11:32.167Z,3.10
2017-09-10T10:13:59.634Z,2.93
2017-09-10T10:16:27.101Z,2.50
2017-09-10T10:18:54.653Z,2.23
2017-09-10T10:21:22.914Z,2.00
2017-09-10T10:23:50.371Z,2.03
2017-09-10T10:26:17.840Z,2.07
2017-09-10T10:28:46.118Z,1.77
2017-09-10T10:31:14.346Z,2.40
2017-09-10T10:33:41.798Z,2.03
2017-09-10T10:36:09.285Z,2.30
2017-09-10T10:38:37.506Z,3.00
2017-09-10T10:41:04.976Z,2.33
2017-09-10T10:43:32.436Z,2.10
2017-09-10T10:45:59.907Z,2.80
2017-09-10T10:48:27.430Z,2.40
2017-09-10T10:50:55.658Z,2.17
2017-09-10T10:53:23.129Z,2.60
2017-09-10T10:55:51.375Z,1.70
2017-09-10T10:58:18.830Z,1.80
2017-09-10T11:00:46.301Z,2.17
2017-09-10T11:03:13.768Z,2.40
2017-09-10T11:05:42.001Z,2.07
2017-09-10T11:08:09.483Z,1.70
2017-09-10T11:10:37.006Z,1.80
2017-09-10T11:13:04.481Z,2.33
2017-09-10T11:15:31.983Z,1.77
2017-09-10T11:18:00.259Z,1.67
2017-09-10T11:20:28.521Z,2.30
2017-09-10T11:22:56.254Z,2.30
2017-09-10T11:25:23.750Z,1.97
2017-09-10T11:27:51.876Z,2.20
2017-09-10T11:30:20.422Z,2.60
2017-09-10T11:32:47.920Z,1.93
2017-09-10T11:35:16.177Z,2.50
2017-09-10T11:37:43.644Z,2.80
2017-09-10T11:40:11.993Z,1.77
2017-09-10T11:42:39.722Z,2.20
2017-09-10T11:45:07.356Z,2.40
2017-09-10T11:47:34.830Z,2.83
2017-09-10T11:50:02.527Z,2.40
2017-09-10T11:52:30.807Z,2.77
2017-09-10T11:54:58.616Z,3.30
2017-09-10T11:57:26.566Z,2.90
2017-09-10T11:59:54.873Z,1.80
2017-09-10T12:02:23.159Z,4.17
2017-09-10T12:04:50.645Z,2.20
2017-09-10T12:07:18.091Z,2.33
2017-09-10T12:09:45.840Z,2.60
2017-09-10T12:12:13.812Z,2.30
2017-09-10T12:14:41.777Z,2.63
2017-09-10T12:17:09.800Z,1.80
2017-09-10T12:19:37.616Z,2.07
2017-09-10T12:22:06.037Z,2.13
2017-09-10T12:24:33.472Z,2.53
2017-09-10T12:27:00.925Z,2.13
2017-09-10T12:29:28.424Z,1.87
2017-09-10T12:31:56.673Z,2.03
2017-09-10T12:34:24.196Z,1.90
2017-09-10T12:36:51.732Z,1.60
2017-09-10T12:39:19.459Z,1.77
2017-09-10T12:41:46.950Z,3.47
2017-09-10T12:44:14.457Z,2.00
2017-09-10T12:46:42.012Z,2.40
2017-09-10T12:49:09.610Z,2.20
2017-09-10T12:51:37.074Z,1.63
2017-09-10T12:54:04.601Z,1.93
2017-09-10T12:56:32.097Z,2.17
2017-09-10T12:58:59.585Z,1.40
2017-09-10T13:01:27.114Z,1.53
2017-09-10T13:03:54.651Z,2.20
2017-09-10T13:06:22.159Z,2.30
2017-09-10T13:08:49.770Z,1.70
2017-09-10T13:11:17.240Z,1.87
2017-09-10T13:13:44.758Z,2.07
2017-09-10T13:16:12.378Z,1.40
2017-09-10T13:18:40.610Z,1.63
2017-09-10T13:21:08.101Z,1.57
2017-09-10T13:23:36.434Z,1.77
2017-09-10T13:26:04.689Z,1.50
2017-09-10T13:28:32.161Z,2.40
2017-09-10T13:30:59.653Z,1.47
2017-09-10T13:33:27.194Z,1.77
2017-09-10T13:35:54.723Z,1.47
2017-09-10T13:38:23.067Z,1.70
2017-09-10T13:40:50.573Z,2.20
2017-09-10T13:43:18.084Z,1.53
2017-09-10T13:45:45.554Z,1.50
2017-09-10T13:48:13.036Z,1.50
2017-09-10T13:50:40.502Z,1.73
2017-09-10T13:53:07.977Z,2.23
2017-09-10T13:55:35.460Z,1.70
2017-09-10T13:58:03.002Z,1.73
2017-09-10T14:00:30.559Z,2.17
2017-09-10T14:02:58.074Z,2.03
2017-09-10T14:05:25.543Z,1.73
2017-09-10T14:07:53.067Z,2.27
2017-09-10T14:10:21.333Z,2.20
2017-09-10T14:12:48.797Z,1.77
2017-09-10T14:15:16.269Z,1.63
2017-09-10T14:17:43.733Z,1.33
2017-09-10T14:20:11.210Z,1.70
2017-09-10T14:22:38.693Z,1.90
2017-09-10T14:25:06.915Z,1.50
2017-09-10T14:27:34.357Z,1.47
2017-09-10T14:30:01.898Z,1.53
2017-09-10T14:32:29.377Z,1.90
2017-09-10T14:34:56.856Z,1.67
2017-09-10T14:37:24.696Z,1.87
2017-09-10T14:39:52.202Z,1.93
2017-09-10T14:42:20.421Z,2.00
2017-09-10T14:44:47.912Z,1.30
2017-09-10T14:47:15.353Z,1.57
2017-09-10T14:49:42.840Z,1.47
2017-09-10T14:52:10.354Z,1.40
2017-09-10T14:54:37.882Z,1.07
2017-09-10T14:57:06.124Z,1.17
2017-09-10T14:59:33.581Z,1.10
2017-09-10T15:02:01.096Z,1.20
2017-09-10T15:04:28.575Z,1.20
2017-09-10T15:06:56.031Z,0.80
2017-09-10T15:09:23.506Z,1.20
2017-09-10T15:11:50.965Z,1.00
2017-09-10T15:14:18.409Z,1.27
2017-09-10T15:16:45.890Z,0.97
2017-09-10T15:19:13.374Z,1.13
2017-09-10T15:21:40.854Z,0.90
2017-09-10T15:24:09.205Z,0.90
2017-09-10T15:26:36.711Z,1.10
2017-09-10T15:29:04.243Z,1.00
2017-09-10T15:31:31.712Z,1.07
2017-09-10T15:34:00.019Z,1.47
2017-09-10T15:36:27.512Z,1.90
2017-09-10T15:38:54.957Z,1.10
2017-09-10T15:41:22.446Z,1.20
2017-09-10T15:43:49.898Z,1.53
2017-09-10T15:46:17.533Z,1.23
2017-09-10T15:48:44.979Z,1.87
2017-09-10T15:51:12.457Z,1.50
2017-09-10T15:53:40.670Z,1.23
2017-09-10T15:56:08.154Z,1.10
2017-09-10T15:58:35.677Z,1.40
2017-09-10T16:01:03.143Z,1.00
2017-09-10T16:03:31.386Z,1.17
2017-09-10T16:05:59.633Z,1.43
2017-09-10T16:08:27.126Z,2.17
2017-09-10T16:10:54.574Z,1.50
2017-09-10T16:13:22.229Z,2.10
2017-09-10T16:15:50.783Z,1.50
2017-09-10T16:18:18.272Z,1.53
2017-09-10T16:20:45.957Z,1.40
2017-09-10T16:23:14.540Z,1.73
2017-09-10T16:25:42.239Z,1.60
2017-09-10T16:28:10.173Z,1.83
2017-09-10T16:30:38.007Z,2.00
2017-09-10T16:33:05.818Z,1.63
2017-09-10T16:35:33.346Z,2.50
2017-09-10T16:38:00.852Z,1.43
2017-09-10T16:40:29.118Z,1.60
2017-09-10T16:42:56.736Z,2.20
2017-09-10T16:45:24.325Z,1.60
2017-09-10T16:47:52.701Z,1.83
2017-09-10T16:50:20.410Z,1.80
2017-09-10T16:52:48.158Z,2.10
2017-09-10T16:55:16.468Z,1.80
2017-09-10T16:57:44.303Z,2.70
2017-09-10T17:00:12.747Z,1.83
2017-09-10T17:02:41.157Z,1.40
2017-09-10T17:05:09.572Z,2.07
2017-09-10T17:07:37.096Z,1.90
2017-09-10T17:10:05.529Z,1.87
2017-09-10T17:12:33.188Z,1.93
2017-09-10T17:15:00.849Z,2.10
2017-09-10T17:17:28.414Z,2.13
2017-09-10T17:19:56.200Z,2.43
2017-09-10T17:22:23.661Z,2.23
2017-09-10T17:24:51.451Z,1.93
2017-09-10T17:27:19.314Z,2.60
2017-09-10T17:29:47.882Z,2.07
2017-09-10T17:32:15.814Z,1.63
2017-09-10T17:34:43.518Z,1.50
2017-09-10T17:37:11.813Z,2.23
2017-09-10T17:39:39.424Z,2.10
2017-09-10T17:42:07.105Z,2.40
2017-09-10T17:44:34.816Z,2.23
2017-09-10T17:47:02.277Z,2.20
2017-09-10T17:49:29.826Z,2.60
2017-09-10T17:51:58.068Z,2.00
2017-09-10T17:54:25.512Z,2.33
2017-09-10T17:56:53.000Z,2.50
2017-09-10T17:59:21.224Z,2.40
2017-09-10T18:01:48.669Z,2.50
2017-09-10T18:04:16.158Z,2.67
2017-09-10T18:06:43.605Z,1.90
2017-09-10T18:09:11.423Z,2.70
2017-09-10T18:11:39.054Z,2.10
2017-09-10T18:14:07.120Z,2.43
2017-09-10T18:16:34.602Z,2.50
2017-09-10T18:19:03.472Z,2.40
2017-09-10T18:21:31.563Z,2.73
2017-09-10T18:23:59.228Z,2.53
2017-09-10T18:26:26.704Z,2.80
2017-09-10T18:28:54.215Z,2.30
2017-09-10T18:31:21.898Z,2.47
2017-09-10T18:33:49.568Z,2.57
2017-09-10T18:36:18.086Z,2.10
2017-09-10T18:38:46.351Z,2.50
2017-09-10T18:41:13.788Z,2.37
2017-09-10T18:43:42.130Z,2.40
2017-09-10T18:46:09.619Z,2.40
2017-09-10T18:48:37.065Z,2.20
2017-09-10T18:51:04.573Z,2.50
2017-09-10T18:53:32.950Z,2.20
2017-09-10T18:56:00.502Z,2.17
2017-09-10T18:58:28.046Z,2.40
2017-09-10T19:00:56.290Z,2.57
2017-09-10T19:03:23.813Z,2.87
2017-09-10T19:05:51.437Z,2.33
2017-09-10T19:08:19.657Z,2.40
2017-09-10T19:10:47.258Z,2.33
2017-09-10T19:13:14.810Z,2.20
2017-09-10T19:15:43.158Z,2.67
2017-09-10T19:18:10.605Z,2.43
2017-09-10T19:20:38.877Z,2.30
2017-09-10T19:23:06.535Z,2.57
2017-09-10T19:25:34.052Z,2.03
2017-09-10T19:28:01.763Z,2.30
2017-09-10T19:30:29.426Z,1.87
2017-09-10T19:32:57.755Z,1.80
2017-09-10T19:35:25.310Z,2.67
2017-09-10T19:37:52.883Z,1.70
2017-09-10T19:40:20.440Z,1.93
2017-09-10T19:42:48.082Z,2.10
2017-09-10T19:45:15.616Z,1.50
2017-09-10T19:47:43.233Z,2.03
2017-09-10T19:50:10.831Z,2.03
2017-09-10T19:52:38.284Z,2.20
2017-09-10T19:55:05.754Z,2.00
2017-09-10T19:57:33.984Z,2.00
2017-09-10T20:00:01.533Z,1.90
2017-09-10T20:02:29.019Z,2.00
2017-09-10T20:04:56.546Z,2.20
2017-09-10T20:07:24.015Z,2.23
2017-09-10T20:09:51.521Z,1.80
2017-09-10T20:12:21.350Z,2.07
2017-09-10T20:14:49.940Z,2.63
2017-09-10T20:17:17.382Z,2.17
2017-09-10T20:19:44.902Z,2.20
2017-09-10T20:22:13.119Z,2.97
2017-09-10T20:24:41.481Z,2.70
2017-09-10T20:27:08.962Z,2.40
2017-09-10T20:29:36.465Z,2.17
2017-09-10T20:32:04.367Z,2.20
2017-09-10T20:34:31.830Z,2.37
2017-09-10T20:37:00.270Z,2.10
2017-09-10T20:39:27.737Z,2.10
2017-09-10T20:41:55.229Z,3.10
2017-09-10T20:44:22.677Z,2.50
2017-09-10T20:46:50.123Z,2.33
2017-09-10T20:49:17.594Z,2.53
2017-09-10T20:51:45.042Z,3.07
2017-09-10T20:54:12.538Z,2.70
2017-09-10T20:56:39.995Z,2.20
2017-09-10T20:59:07.441Z,2.20
2017-09-10T21:01:34.923Z,2.37
2017-09-10T21:04:02.398Z,2.73
2017-09-10T21:06:29.847Z,2.70
2017-09-10T21:08:57.408Z,2.30
2017-09-10T21:11:24.845Z,2.10
2017-09-10T21:13:52.297Z,2.13
2017-09-10T21:16:19.778Z,2.07
2017-09-10T21:18:47.238Z,2.27
2017-09-10T21:21:14.713Z,1.97
2017-09-10T21:23:42.162Z,2.23
2017-09-10T21:26:09.641Z,1.87
2017-09-10T21:28:37.090Z,2.47
2017-09-10T21:31:04.558Z,2.33
2017-09-10T21:33:32.048Z,2.73
2017-09-10T21:35:59.497Z,2.37
2017-09-10T21:38:26.942Z,2.20
2017-09-10T21:40:54.420Z,2.20
2017-09-10T21:43:21.883Z,2.23
2017-09-10T21:45:49.390Z,2.07
2017-09-10T21:48:16.833Z,1.90
2017-09-10T21:50:44.282Z,2.23
2017-09-10T21:53:11.764Z,2.17
2017-09-10T21:55:39.212Z,2.60
2017-09-10T21:58:06.683Z,3.10
2017-09-10T22:00:34.181Z,1.97
2017-09-10T22:03:01.685Z,2.13
2017-09-10T22:05:29.152Z,2.27
2017-09-10T22:07:56.602Z,3.60
2017-09-10T22:10:24.093Z,2.37
2017-09-10T22:12:51.558Z,1.70
2017-09-10T22:15:19.006Z,2.20
2017-09-10T22:17:46.474Z,1.80
2017-09-10T22:20:13.921Z,2.23
2017-09-10T22:22:41.398Z,2.13
2017-09-10T22:25:08.865Z,2.03
2017-09-10T22:27:36.309Z,2.37
2017-09-10T22:30:03.778Z,1.90
2017-09-10T22:32:31.262Z,2.07
2017-09-10T22:34:58.715Z,2.37
2017-09-10T22:37:26.160Z,1.57
2017-09-10T22:39:54.397Z,1.97
2017-09-10T22:42:21.854Z,2.13
2017-09-10T22:44:49.346Z,2.07
2017-09-10T22:47:16.810Z,2.37
2017-09-10T22:49:44.267Z,2.50
2017-09-10T22:52:11.745Z,2.83
2017-09-10T22:54:39.229Z,2.33
2017-09-10T22:57:06.689Z,2.57
2017-09-10T22:59:34.224Z,2.30
2017-09-10T23:02:01.708Z,2.50
2017-09-10T23:04:29.204Z,2.13
2017-09-10T23:06:56.649Z,2.20
2017-09-10T23:09:24.106Z,2.27
2017-09-10T23:11:51.583Z,2.40
2017-09-10T23:14:19.046Z,2.00
2017-09-10T23:16:46.550Z,3.70
2017-09-10T23:19:14.005Z,2.57
2017-09-10T23:21:41.469Z,2.47
2017-09-10T23:24:08.961Z,3.20
2017-09-10T23:26:37.208Z,3.10
2017-09-10T23:29:04.742Z,3.30
2017-09-10T23:31:32.238Z,3.00
2017-09-10T23:33:59.689Z,4.07
2017-09-10T23:36:27.149Z,4.53
2017-09-10T23:38:54.623Z,3.03
2017-09-10T23:41:22.086Z,3.07
2017-09-10T23:43:49.565Z,3.63
2017-09-10T23:46:17.030Z,4.33
2017-09-10T23:48:45.280Z,4.20
2017-09-10T23:51:12.778Z,3.30
2017-09-10T23:53:40.237Z,3.73
2017-09-10T23:56:07.694Z,4.17
2017-09-10T23:58:35.950Z,3.33
